sensor_id;sensor_type;location;lat;lon;timestamp;P1;durP1;ratioP1;P2;durP2;ratioP2
13112;SDS011;6622;49.752;6.100;2022-08-19T00:01:40;8.33;;;7.13;;
13112;SDS011;6622;49.752;6.100;2022-08-19T00:04:07;10.20;;;6.60;;
13112;SDS011;6622;49.752;6.100;2022-08-19T00:06:34;7.17;;;6.10;;
13112;SDS011;6622;49.752;6.100;2022-08-19T00:08:59;10.47;;;6.97;;
13112;SDS011;6622;49.752;6.100;2022-08-19T00:11:27;9.37;;;7.40;;
13112;SDS011;6622;49.752;6.100;2022-08-19T00:13:54;8.27;;;7.10;;
13112;SDS011;6622;49.752;6.100;2022-08-19T00:16:21;10.87;;;7.10;;
13112;SDS011;6622;49.752;6.100;2022-08-19T00:18:47;9.63;;;7.65;;
13112;SDS011;6622;49.752;6.100;2022-08-19T00:21:14;10.30;;;6.73;;
13112;SDS011;6622;49.752;6.100;2022-08-19T00:23:40;9.20;;;7.07;;
13112;SDS011;6622;49.752;6.100;2022-08-19T00:26:07;9.17;;;6.77;;
13112;SDS011;6622;49.752;6.100;2022-08-19T00:28:33;9.73;;;8.13;;
13112;SDS011;6622;49.752;6.100;2022-08-19T00:31:00;11.57;;;6.93;;
13112;SDS011;6622;49.752;6.100;2022-08-19T00:33:27;9.23;;;7.20;;
13112;SDS011;6622;49.752;6.100;2022-08-19T00:35:54;8.93;;;7.17;;
13112;SDS011;6622;49.752;6.100;2022-08-19T00:38:20;8.80;;;6.43;;
13112;SDS011;6622;49.752;6.100;2022-08-19T00:40:46;10.97;;;7.07;;
13112;SDS011;6622;49.752;6.100;2022-08-19T00:43:13;9.93;;;7.23;;
13112;SDS011;6622;49.752;6.100;2022-08-19T00:45:40;10.10;;;7.77;;
13112;SDS011;6622;49.752;6.100;2022-08-19T00:48:09;9.70;;;6.73;;
13112;SDS011;6622;49.752;6.100;2022-08-19T00:50:36;10.18;;;8.40;;
13112;SDS011;6622;49.752;6.100;2022-08-19T00:53:02;9.55;;;7.97;;
13112;SDS011;6622;49.752;6.100;2022-08-19T00:55:29;8.23;;;6.50;;
13112;SDS011;6622;49.752;6.100;2022-08-19T00:58:02;7.57;;;6.43;;
13112;SDS011;6622;49.752;6.100;2022-08-19T01:00:24;9.20;;;6.33;;
13112;SDS011;6622;49.752;6.100;2022-08-19T01:02:50;8.07;;;7.07;;
13112;SDS011;6622;49.752;6.100;2022-08-19T01:05:18;8.93;;;6.13;;
13112;SDS011;6622;49.752;6.100;2022-08-19T01:07:43;10.10;;;6.60;;
13112;SDS011;6622;49.752;6.100;2022-08-19T01:10:12;7.40;;;6.33;;
13112;SDS011;6622;49.752;6.100;2022-08-19T01:12:37;7.87;;;5.90;;
13112;SDS011;6622;49.752;6.100;2022-08-19T01:15:05;10.03;;;7.60;;
13112;SDS011;6622;49.752;6.100;2022-08-19T01:17:31;9.60;;;6.87;;
13112;SDS011;6622;49.752;6.100;2022-08-19T01:19:57;9.53;;;7.00;;
13112;SDS011;6622;49.752;6.100;2022-08-19T01:24:51;9.23;;;7.82;;
13112;SDS011;6622;49.752;6.100;2022-08-19T01:27:17;9.47;;;7.10;;
13112;SDS011;6622;49.752;6.100;2022-08-19T01:29:44;11.87;;;7.20;;
13112;SDS011;6622;49.752;6.100;2022-08-19T01:32:12;10.03;;;7.00;;
13112;SDS011;6622;49.752;6.100;2022-08-19T01:34:38;9.50;;;7.07;;
13112;SDS011;6622;49.752;6.100;2022-08-19T01:37:08;7.90;;;6.70;;
13112;SDS011;6622;49.752;6.100;2022-08-19T01:39:34;9.13;;;6.70;;
13112;SDS011;6622;49.752;6.100;2022-08-19T01:42:00;10.40;;;7.00;;
13112;SDS011;6622;49.752;6.100;2022-08-19T01:44:27;10.13;;;5.97;;
13112;SDS011;6622;49.752;6.100;2022-08-19T01:46:54;10.23;;;6.90;;
13112;SDS011;6622;49.752;6.100;2022-08-19T01:49:21;8.43;;;6.43;;
13112;SDS011;6622;49.752;6.100;2022-08-19T01:51:47;7.90;;;6.03;;
13112;SDS011;6622;49.752;6.100;2022-08-19T01:54:14;9.82;;;8.02;;
13112;SDS011;6622;49.752;6.100;2022-08-19T01:56:40;9.67;;;7.53;;
13112;SDS011;6622;49.752;6.100;2022-08-19T01:59:09;12.83;;;7.77;;
13112;SDS011;6622;49.752;6.100;2022-08-19T02:01:36;9.63;;;6.83;;
13112;SDS011;6622;49.752;6.100;2022-08-19T02:04:03;9.07;;;6.80;;
13112;SDS011;6622;49.752;6.100;2022-08-19T02:06:29;9.50;;;7.57;;
13112;SDS011;6622;49.752;6.100;2022-08-19T02:08:57;8.70;;;7.03;;
13112;SDS011;6622;49.752;6.100;2022-08-19T02:11:28;9.27;;;7.03;;
13112;SDS011;6622;49.752;6.100;2022-08-19T02:13:50;9.63;;;7.03;;
13112;SDS011;6622;49.752;6.100;2022-08-19T02:16:18;11.17;;;7.43;;
13112;SDS011;6622;49.752;6.100;2022-08-19T02:18:44;9.67;;;7.40;;
13112;SDS011;6622;49.752;6.100;2022-08-19T02:21:11;9.57;;;7.30;;
13112;SDS011;6622;49.752;6.100;2022-08-19T02:23:37;10.03;;;7.80;;
13112;SDS011;6622;49.752;6.100;2022-08-19T02:26:04;10.60;;;6.63;;
13112;SDS011;6622;49.752;6.100;2022-08-19T02:28:31;8.17;;;6.10;;
13112;SDS011;6622;49.752;6.100;2022-08-19T02:30:58;7.80;;;6.07;;
13112;SDS011;6622;49.752;6.100;2022-08-19T02:33:25;9.03;;;7.07;;
13112;SDS011;6622;49.752;6.100;2022-08-19T02:35:52;9.43;;;6.83;;
13112;SDS011;6622;49.752;6.100;2022-08-19T02:38:19;8.00;;;6.43;;
13112;SDS011;6622;49.752;6.100;2022-08-19T02:40:53;7.77;;;6.83;;
13112;SDS011;6622;49.752;6.100;2022-08-19T02:43:19;9.00;;;6.70;;
13112;SDS011;6622;49.752;6.100;2022-08-19T02:45:48;9.30;;;7.13;;
13112;SDS011;6622;49.752;6.100;2022-08-19T02:48:16;8.73;;;6.73;;
13112;SDS011;6622;49.752;6.100;2022-08-19T02:50:41;9.93;;;6.70;;
13112;SDS011;6622;49.752;6.100;2022-08-19T02:53:08;8.85;;;7.53;;
13112;SDS011;6622;49.752;6.100;2022-08-19T02:55:34;10.23;;;7.63;;
13112;SDS011;6622;49.752;6.100;2022-08-19T02:58:01;9.33;;;6.90;;
13112;SDS011;6622;49.752;6.100;2022-08-19T03:00:28;8.80;;;6.77;;
13112;SDS011;6622;49.752;6.100;2022-08-19T03:02:54;10.38;;;8.70;;
13112;SDS011;6622;49.752;6.100;2022-08-19T03:05:22;9.53;;;7.23;;
13112;SDS011;6622;49.752;6.100;2022-08-19T03:07:48;11.77;;;6.67;;
13112;SDS011;6622;49.752;6.100;2022-08-19T03:10:15;9.37;;;6.83;;
13112;SDS011;6622;49.752;6.100;2022-08-19T03:12:42;10.27;;;6.70;;
13112;SDS011;6622;49.752;6.100;2022-08-19T03:15:08;8.23;;;7.03;;
13112;SDS011;6622;49.752;6.100;2022-08-19T03:17:35;8.67;;;6.70;;
13112;SDS011;6622;49.752;6.100;2022-08-19T03:20:02;8.43;;;6.60;;
13112;SDS011;6622;49.752;6.100;2022-08-19T03:22:28;8.43;;;6.50;;
13112;SDS011;6622;49.752;6.100;2022-08-19T03:24:55;9.17;;;6.97;;
13112;SDS011;6622;49.752;6.100;2022-08-19T03:27:22;9.27;;;6.53;;
13112;SDS011;6622;49.752;6.100;2022-08-19T03:29:48;9.90;;;7.50;;
13112;SDS011;6622;49.752;6.100;2022-08-19T03:32:15;10.67;;;7.67;;
13112;SDS011;6622;49.752;6.100;2022-08-19T03:34:42;8.33;;;6.93;;
13112;SDS011;6622;49.752;6.100;2022-08-19T03:37:10;9.20;;;7.30;;
13112;SDS011;6622;49.752;6.100;2022-08-19T03:39:37;11.33;;;7.17;;
13112;SDS011;6622;49.752;6.100;2022-08-19T03:42:03;10.27;;;7.50;;
13112;SDS011;6622;49.752;6.100;2022-08-19T03:44:29;8.17;;;6.73;;
13112;SDS011;6622;49.752;6.100;2022-08-19T03:46:56;9.57;;;6.80;;
13112;SDS011;6622;49.752;6.100;2022-08-19T03:49:23;9.82;;;8.00;;
13112;SDS011;6622;49.752;6.100;2022-08-19T03:51:49;9.57;;;8.00;;
13112;SDS011;6622;49.752;6.100;2022-08-19T03:54:17;7.77;;;6.67;;
13112;SDS011;6622;49.752;6.100;2022-08-19T03:56:42;8.30;;;6.53;;
13112;SDS011;6622;49.752;6.100;2022-08-19T03:59:15;10.53;;;7.10;;
13112;SDS011;6622;49.752;6.100;2022-08-19T04:01:36;10.23;;;7.47;;
13112;SDS011;6622;49.752;6.100;2022-08-19T04:04:03;9.93;;;8.25;;
13112;SDS011;6622;49.752;6.100;2022-08-19T04:06:30;10.90;;;7.70;;
13112;SDS011;6622;49.752;6.100;2022-08-19T04:08:57;9.83;;;7.80;;
13112;SDS011;6622;49.752;6.100;2022-08-19T04:11:24;10.77;;;7.47;;
13112;SDS011;6622;49.752;6.100;2022-08-19T04:13:50;10.40;;;8.27;;
13112;SDS011;6622;49.752;6.100;2022-08-19T04:16:17;9.47;;;7.23;;
13112;SDS011;6622;49.752;6.100;2022-08-19T04:18:42;9.80;;;8.23;;
13112;SDS011;6622;49.752;6.100;2022-08-19T04:21:14;9.87;;;7.10;;
13112;SDS011;6622;49.752;6.100;2022-08-19T04:23:36;7.97;;;6.67;;
13112;SDS011;6622;49.752;6.100;2022-08-19T04:26:03;9.93;;;7.20;;
13112;SDS011;6622;49.752;6.100;2022-08-19T04:28:30;9.23;;;6.60;;
13112;SDS011;6622;49.752;6.100;2022-08-19T04:30:56;10.00;;;6.70;;
13112;SDS011;6622;49.752;6.100;2022-08-19T04:33:24;8.93;;;7.00;;
13112;SDS011;6622;49.752;6.100;2022-08-19T04:35:51;8.73;;;6.80;;
13112;SDS011;6622;49.752;6.100;2022-08-19T04:38:21;7.63;;;6.07;;
13112;SDS011;6622;49.752;6.100;2022-08-19T04:40:46;9.30;;;7.13;;
13112;SDS011;6622;49.752;6.100;2022-08-19T04:43:29;8.20;;;6.50;;
13112;SDS011;6622;49.752;6.100;2022-08-19T04:45:56;10.00;;;7.03;;
13112;SDS011;6622;49.752;6.100;2022-08-19T04:48:23;8.70;;;6.70;;
13112;SDS011;6622;49.752;6.100;2022-08-19T04:50:49;11.10;;;6.47;;
13112;SDS011;6622;49.752;6.100;2022-08-19T04:53:16;8.67;;;6.50;;
13112;SDS011;6622;49.752;6.100;2022-08-19T04:55:42;8.60;;;6.27;;
13112;SDS011;6622;49.752;6.100;2022-08-19T04:58:09;9.37;;;6.70;;
13112;SDS011;6622;49.752;6.100;2022-08-19T05:00:37;9.27;;;6.63;;
13112;SDS011;6622;49.752;6.100;2022-08-19T05:03:03;10.97;;;5.83;;
13112;SDS011;6622;49.752;6.100;2022-08-19T05:05:30;9.63;;;6.73;;
13112;SDS011;6622;49.752;6.100;2022-08-19T05:07:57;8.13;;;5.87;;
13112;SDS011;6622;49.752;6.100;2022-08-19T05:10:24;10.17;;;6.87;;
13112;SDS011;6622;49.752;6.100;2022-08-19T05:12:50;8.17;;;6.60;;
13112;SDS011;6622;49.752;6.100;2022-08-19T05:15:17;8.97;;;6.70;;
13112;SDS011;6622;49.752;6.100;2022-08-19T05:17:44;8.03;;;6.63;;
13112;SDS011;6622;49.752;6.100;2022-08-19T05:20:11;8.77;;;6.43;;
13112;SDS011;6622;49.752;6.100;2022-08-19T05:22:56;9.57;;;6.20;;
13112;SDS011;6622;49.752;6.100;2022-08-19T05:25:23;9.93;;;6.87;;
13112;SDS011;6622;49.752;6.100;2022-08-19T05:27:50;15.13;;;7.40;;
13112;SDS011;6622;49.752;6.100;2022-08-19T05:30:16;10.50;;;7.80;;
13112;SDS011;6622;49.752;6.100;2022-08-19T05:32:44;9.80;;;6.47;;
13112;SDS011;6622;49.752;6.100;2022-08-19T05:35:10;8.30;;;6.43;;
13112;SDS011;6622;49.752;6.100;2022-08-19T05:37:37;10.50;;;7.47;;
13112;SDS011;6622;49.752;6.100;2022-08-19T05:40:03;10.03;;;7.20;;
13112;SDS011;6622;49.752;6.100;2022-08-19T05:42:31;9.77;;;6.73;;
13112;SDS011;6622;49.752;6.100;2022-08-19T05:44:58;9.37;;;7.53;;
13112;SDS011;6622;49.752;6.100;2022-08-19T05:47:24;9.63;;;7.37;;
13112;SDS011;6622;49.752;6.100;2022-08-19T05:49:52;9.90;;;7.70;;
13112;SDS011;6622;49.752;6.100;2022-08-19T05:52:18;10.13;;;8.23;;
13112;SDS011;6622;49.752;6.100;2022-08-19T05:54:45;11.90;;;8.87;;
13112;SDS011;6622;49.752;6.100;2022-08-19T05:57:11;10.10;;;8.50;;
13112;SDS011;6622;49.752;6.100;2022-08-19T05:59:39;11.07;;;8.10;;
13112;SDS011;6622;49.752;6.100;2022-08-19T06:02:06;11.80;;;7.27;;
13112;SDS011;6622;49.752;6.100;2022-08-19T06:04:32;8.43;;;7.10;;
13112;SDS011;6622;49.752;6.100;2022-08-19T06:06:59;10.60;;;7.53;;
13112;SDS011;6622;49.752;6.100;2022-08-19T06:09:25;10.67;;;6.83;;
13112;SDS011;6622;49.752;6.100;2022-08-19T06:11:53;9.00;;;7.23;;
13112;SDS011;6622;49.752;6.100;2022-08-19T06:14:23;10.07;;;7.93;;
13112;SDS011;6622;49.752;6.100;2022-08-19T06:16:48;10.90;;;7.07;;
13112;SDS011;6622;49.752;6.100;2022-08-19T06:19:15;10.97;;;7.90;;
13112;SDS011;6622;49.752;6.100;2022-08-19T06:21:42;11.10;;;8.32;;
13112;SDS011;6622;49.752;6.100;2022-08-19T06:24:09;9.25;;;7.07;;
13112;SDS011;6622;49.752;6.100;2022-08-19T06:26:36;9.45;;;7.75;;
13112;SDS011;6622;49.752;6.100;2022-08-19T06:29:03;10.70;;;7.35;;
13112;SDS011;6622;49.752;6.100;2022-08-19T06:31:29;8.50;;;7.37;;
13112;SDS011;6622;49.752;6.100;2022-08-19T06:33:55;11.55;;;7.53;;
13112;SDS011;6622;49.752;6.100;2022-08-19T06:36:28;9.25;;;8.32;;
13112;SDS011;6622;49.752;6.100;2022-08-19T06:38:54;10.30;;;6.97;;
13112;SDS011;6622;49.752;6.100;2022-08-19T06:41:21;10.77;;;8.20;;
13112;SDS011;6622;49.752;6.100;2022-08-19T06:43:48;11.23;;;8.18;;
13112;SDS011;6622;49.752;6.100;2022-08-19T06:46:15;10.38;;;8.07;;
13112;SDS011;6622;49.752;6.100;2022-08-19T06:48:41;9.02;;;7.90;;
13112;SDS011;6622;49.752;6.100;2022-08-19T06:51:08;9.75;;;7.75;;
13112;SDS011;6622;49.752;6.100;2022-08-19T06:53:36;11.32;;;8.32;;
13112;SDS011;6622;49.752;6.100;2022-08-19T06:56:02;10.80;;;8.25;;
13112;SDS011;6622;49.752;6.100;2022-08-19T06:58:29;11.27;;;8.55;;
13112;SDS011;6622;49.752;6.100;2022-08-19T07:00:55;12.80;;;8.57;;
13112;SDS011;6622;49.752;6.100;2022-08-19T07:03:22;11.10;;;8.77;;
13112;SDS011;6622;49.752;6.100;2022-08-19T07:05:49;12.00;;;9.05;;
13112;SDS011;6622;49.752;6.100;2022-08-19T07:08:15;12.35;;;10.02;;
13112;SDS011;6622;49.752;6.100;2022-08-19T07:10:43;12.45;;;9.65;;
13112;SDS011;6622;49.752;6.100;2022-08-19T07:13:09;13.13;;;10.70;;
13112;SDS011;6622;49.752;6.100;2022-08-19T07:15:35;12.88;;;10.25;;
13112;SDS011;6622;49.752;6.100;2022-08-19T07:18:02;11.23;;;9.40;;
13112;SDS011;6622;49.752;6.100;2022-08-19T07:20:28;14.13;;;10.30;;
13112;SDS011;6622;49.752;6.100;2022-08-19T07:22:55;13.02;;;10.55;;
13112;SDS011;6622;49.752;6.100;2022-08-19T07:25:23;13.40;;;10.68;;
13112;SDS011;6622;49.752;6.100;2022-08-19T07:27:49;13.65;;;12.18;;
13112;SDS011;6622;49.752;6.100;2022-08-19T07:30:16;14.77;;;11.52;;
13112;SDS011;6622;49.752;6.100;2022-08-19T07:32:42;15.18;;;11.57;;
13112;SDS011;6622;49.752;6.100;2022-08-19T07:35:09;13.93;;;12.00;;
13112;SDS011;6622;49.752;6.100;2022-08-19T07:37:36;12.55;;;10.95;;
13112;SDS011;6622;49.752;6.100;2022-08-19T07:40:04;13.65;;;10.82;;
13112;SDS011;6622;49.752;6.100;2022-08-19T07:42:30;14.68;;;11.18;;
13112;SDS011;6622;49.752;6.100;2022-08-19T07:44:57;12.73;;;10.20;;
13112;SDS011;6622;49.752;6.100;2022-08-19T07:47:24;13.27;;;10.55;;
13112;SDS011;6622;49.752;6.100;2022-08-19T07:49:51;15.00;;;10.48;;
13112;SDS011;6622;49.752;6.100;2022-08-19T07:52:17;13.40;;;10.10;;
13112;SDS011;6622;49.752;6.100;2022-08-19T07:54:44;14.38;;;10.50;;
13112;SDS011;6622;49.752;6.100;2022-08-19T07:57:10;15.07;;;12.77;;
13112;SDS011;6622;49.752;6.100;2022-08-19T07:59:38;15.43;;;11.65;;
13112;SDS011;6622;49.752;6.100;2022-08-19T08:02:04;15.15;;;11.05;;
13112;SDS011;6622;49.752;6.100;2022-08-19T08:04:31;12.95;;;10.85;;
13112;SDS011;6622;49.752;6.100;2022-08-19T08:07:16;15.73;;;13.35;;
13112;SDS011;6622;49.752;6.100;2022-08-19T08:10:01;11.65;;;10.02;;
13112;SDS011;6622;49.752;6.100;2022-08-19T08:12:29;13.95;;;12.45;;
13112;SDS011;6622;49.752;6.100;2022-08-19T08:14:55;13.80;;;11.12;;
13112;SDS011;6622;49.752;6.100;2022-08-19T08:17:21;15.32;;;11.50;;
13112;SDS011;6622;49.752;6.100;2022-08-19T08:19:47;14.55;;;10.35;;
13112;SDS011;6622;49.752;6.100;2022-08-19T08:22:14;12.48;;;10.50;;
13112;SDS011;6622;49.752;6.100;2022-08-19T08:24:40;12.80;;;10.75;;
13112;SDS011;6622;49.752;6.100;2022-08-19T08:27:07;12.95;;;10.20;;
13112;SDS011;6622;49.752;6.100;2022-08-19T08:29:34;10.75;;;8.68;;
13112;SDS011;6622;49.752;6.100;2022-08-19T08:32:00;12.75;;;9.07;;
13112;SDS011;6622;49.752;6.100;2022-08-19T08:34:27;10.57;;;8.77;;
13112;SDS011;6622;49.752;6.100;2022-08-19T08:36:53;13.38;;;9.77;;
13112;SDS011;6622;49.752;6.100;2022-08-19T08:39:20;15.98;;;10.30;;
13112;SDS011;6622;49.752;6.100;2022-08-19T08:41:57;14.63;;;11.12;;
13112;SDS011;6622;49.752;6.100;2022-08-19T08:44:23;13.52;;;11.60;;
13112;SDS011;6622;49.752;6.100;2022-08-19T08:46:50;11.52;;;9.57;;
13112;SDS011;6622;49.752;6.100;2022-08-19T08:49:25;11.95;;;10.07;;
13112;SDS011;6622;49.752;6.100;2022-08-19T08:51:52;11.05;;;8.95;;
13112;SDS011;6622;49.752;6.100;2022-08-19T08:54:20;13.95;;;10.27;;
13112;SDS011;6622;49.752;6.100;2022-08-19T08:56:44;13.00;;;9.88;;
13112;SDS011;6622;49.752;6.100;2022-08-19T08:59:28;14.38;;;12.25;;
13112;SDS011;6622;49.752;6.100;2022-08-19T09:01:52;13.25;;;10.63;;
13112;SDS011;6622;49.752;6.100;2022-08-19T09:04:20;13.05;;;9.80;;
13112;SDS011;6622;49.752;6.100;2022-08-19T09:06:50;12.13;;;10.75;;
13112;SDS011;6622;49.752;6.100;2022-08-19T09:09:25;11.95;;;9.55;;
13112;SDS011;6622;49.752;6.100;2022-08-19T09:12:12;12.25;;;8.80;;
13112;SDS011;6622;49.752;6.100;2022-08-19T09:14:46;12.65;;;10.32;;
13112;SDS011;6622;49.752;6.100;2022-08-19T09:17:11;11.30;;;9.38;;
13112;SDS011;6622;49.752;6.100;2022-08-19T09:19:55;12.15;;;9.27;;
13112;SDS011;6622;49.752;6.100;2022-08-19T09:22:35;10.52;;;8.40;;
13112;SDS011;6622;49.752;6.100;2022-08-19T09:25:04;11.73;;;9.27;;
13112;SDS011;6622;49.752;6.100;2022-08-19T09:27:31;12.60;;;8.75;;
13112;SDS011;6622;49.752;6.100;2022-08-19T09:29:57;11.73;;;8.95;;
13112;SDS011;6622;49.752;6.100;2022-08-19T09:32:24;13.48;;;8.93;;
13112;SDS011;6622;49.752;6.100;2022-08-19T09:34:50;10.25;;;9.18;;
13112;SDS011;6622;49.752;6.100;2022-08-19T09:37:17;10.30;;;8.85;;
13112;SDS011;6622;49.752;6.100;2022-08-19T09:39:44;11.85;;;8.98;;
13112;SDS011;6622;49.752;6.100;2022-08-19T09:42:10;11.73;;;10.50;;
13112;SDS011;6622;49.752;6.100;2022-08-19T09:44:40;12.30;;;9.20;;
13112;SDS011;6622;49.752;6.100;2022-08-19T09:47:04;10.98;;;8.10;;
13112;SDS011;6622;49.752;6.100;2022-08-19T09:49:31;11.18;;;9.32;;
13112;SDS011;6622;49.752;6.100;2022-08-19T09:51:58;11.68;;;9.30;;
13112;SDS011;6622;49.752;6.100;2022-08-19T09:54:24;10.38;;;9.20;;
13112;SDS011;6622;49.752;6.100;2022-08-19T09:56:54;10.77;;;8.07;;
13112;SDS011;6622;49.752;6.100;2022-08-19T09:59:17;11.65;;;8.60;;
13112;SDS011;6622;49.752;6.100;2022-08-19T10:01:45;11.15;;;9.02;;
13112;SDS011;6622;49.752;6.100;2022-08-19T10:04:11;13.15;;;8.98;;
13112;SDS011;6622;49.752;6.100;2022-08-19T10:06:38;10.50;;;8.88;;
13112;SDS011;6622;49.752;6.100;2022-08-19T10:09:06;10.95;;;9.07;;
13112;SDS011;6622;49.752;6.100;2022-08-19T10:11:32;15.10;;;10.75;;
13112;SDS011;6622;49.752;6.100;2022-08-19T10:13:59;10.38;;;9.27;;
13112;SDS011;6622;49.752;6.100;2022-08-19T10:16:25;9.57;;;8.18;;
13112;SDS011;6622;49.752;6.100;2022-08-19T10:18:52;10.50;;;8.30;;
13112;SDS011;6622;49.752;6.100;2022-08-19T10:21:20;11.55;;;8.93;;
13112;SDS011;6622;49.752;6.100;2022-08-19T10:23:46;11.55;;;8.68;;
13112;SDS011;6622;49.752;6.100;2022-08-19T10:26:14;11.85;;;7.97;;
13112;SDS011;6622;49.752;6.100;2022-08-19T10:28:39;12.63;;;7.97;;
13112;SDS011;6622;49.752;6.100;2022-08-19T10:31:07;10.38;;;7.30;;
13112;SDS011;6622;49.752;6.100;2022-08-19T10:33:33;12.10;;;8.48;;
13112;SDS011;6622;49.752;6.100;2022-08-19T10:36:00;12.43;;;9.00;;
13112;SDS011;6622;49.752;6.100;2022-08-19T10:38:27;12.48;;;8.80;;
13112;SDS011;6622;49.752;6.100;2022-08-19T10:40:53;10.40;;;7.32;;
13112;SDS011;6622;49.752;6.100;2022-08-19T10:43:20;11.20;;;8.18;;
13112;SDS011;6622;49.752;6.100;2022-08-19T10:45:53;9.55;;;7.53;;
13112;SDS011;6622;49.752;6.100;2022-08-19T10:48:19;13.57;;;9.40;;
13112;SDS011;6622;49.752;6.100;2022-08-19T10:50:46;11.20;;;8.38;;
13112;SDS011;6622;49.752;6.100;2022-08-19T10:53:31;9.40;;;7.35;;
13112;SDS011;6622;49.752;6.100;2022-08-19T10:55:57;10.60;;;7.85;;
13112;SDS011;6622;49.752;6.100;2022-08-19T10:58:42;13.60;;;8.13;;
13112;SDS011;6622;49.752;6.100;2022-08-19T11:01:08;11.90;;;9.20;;
13112;SDS011;6622;49.752;6.100;2022-08-19T11:03:35;11.70;;;9.15;;
13112;SDS011;6622;49.752;6.100;2022-08-19T11:06:03;12.18;;;7.32;;
13112;SDS011;6622;49.752;6.100;2022-08-19T11:08:28;10.15;;;7.57;;
13112;SDS011;6622;49.752;6.100;2022-08-19T11:10:55;9.43;;;7.12;;
13112;SDS011;6622;49.752;6.100;2022-08-19T11:13:22;10.13;;;7.40;;
13112;SDS011;6622;49.752;6.100;2022-08-19T11:16:00;12.85;;;7.93;;
13112;SDS011;6622;49.752;6.100;2022-08-19T11:18:16;11.23;;;7.30;;
13112;SDS011;6622;49.752;6.100;2022-08-19T11:20:42;9.15;;;7.18;;
13112;SDS011;6622;49.752;6.100;2022-08-19T11:23:09;7.43;;;5.55;;
13112;SDS011;6622;49.752;6.100;2022-08-19T11:25:38;7.62;;;5.12;;
13112;SDS011;6622;49.752;6.100;2022-08-19T11:28:03;5.10;;;4.32;;
13112;SDS011;6622;49.752;6.100;2022-08-19T11:30:29;6.20;;;4.50;;
13112;SDS011;6622;49.752;6.100;2022-08-19T11:32:56;4.85;;;4.37;;
13112;SDS011;6622;49.752;6.100;2022-08-19T11:35:23;5.85;;;4.55;;
13112;SDS011;6622;49.752;6.100;2022-08-19T11:37:50;6.55;;;5.03;;
13112;SDS011;6622;49.752;6.100;2022-08-19T11:40:17;5.57;;;5.00;;
13112;SDS011;6622;49.752;6.100;2022-08-19T11:42:43;5.75;;;4.87;;
13112;SDS011;6622;49.752;6.100;2022-08-19T11:45:22;7.10;;;5.65;;
13112;SDS011;6622;49.752;6.100;2022-08-19T11:47:48;6.93;;;4.93;;
13112;SDS011;6622;49.752;6.100;2022-08-19T11:50:16;5.62;;;4.53;;
13112;SDS011;6622;49.752;6.100;2022-08-19T11:52:43;5.43;;;4.22;;
13112;SDS011;6622;49.752;6.100;2022-08-19T11:55:09;5.57;;;4.87;;
13112;SDS011;6622;49.752;6.100;2022-08-19T11:57:36;5.70;;;4.60;;
13112;SDS011;6622;49.752;6.100;2022-08-19T12:00:03;5.37;;;4.55;;
13112;SDS011;6622;49.752;6.100;2022-08-19T12:02:29;5.40;;;4.25;;
13112;SDS011;6622;49.752;6.100;2022-08-19T12:04:56;5.07;;;4.10;;
13112;SDS011;6622;49.752;6.100;2022-08-19T12:07:22;4.97;;;4.20;;
13112;SDS011;6622;49.752;6.100;2022-08-19T12:09:49;4.70;;;3.95;;
13112;SDS011;6622;49.752;6.100;2022-08-19T12:12:16;5.10;;;4.10;;
13112;SDS011;6622;49.752;6.100;2022-08-19T12:14:42;5.45;;;4.28;;
13112;SDS011;6622;49.752;6.100;2022-08-19T12:17:09;7.93;;;4.57;;
13112;SDS011;6622;49.752;6.100;2022-08-19T12:19:36;5.60;;;4.47;;
13112;SDS011;6622;49.752;6.100;2022-08-19T12:22:02;5.97;;;4.80;;
13112;SDS011;6622;49.752;6.100;2022-08-19T12:24:32;7.43;;;5.87;;
13112;SDS011;6622;49.752;6.100;2022-08-19T12:26:58;6.50;;;5.00;;
13112;SDS011;6622;49.752;6.100;2022-08-19T12:29:25;6.80;;;4.37;;
13112;SDS011;6622;49.752;6.100;2022-08-19T12:31:51;5.00;;;4.05;;
13112;SDS011;6622;49.752;6.100;2022-08-19T12:34:18;5.65;;;4.60;;
13112;SDS011;6622;49.752;6.100;2022-08-19T12:36:45;6.30;;;4.37;;
13112;SDS011;6622;49.752;6.100;2022-08-19T12:39:12;6.12;;;4.12;;
13112;SDS011;6622;49.752;6.100;2022-08-19T12:41:39;6.30;;;4.20;;
13112;SDS011;6622;49.752;6.100;2022-08-19T12:44:05;5.72;;;3.70;;
13112;SDS011;6622;49.752;6.100;2022-08-19T12:46:33;4.32;;;3.40;;
13112;SDS011;6622;49.752;6.100;2022-08-19T12:48:59;4.05;;;3.35;;
13112;SDS011;6622;49.752;6.100;2022-08-19T12:51:26;4.75;;;3.45;;
13112;SDS011;6622;49.752;6.100;2022-08-19T12:53:53;4.50;;;3.17;;
13112;SDS011;6622;49.752;6.100;2022-08-19T12:56:20;3.90;;;3.30;;
13112;SDS011;6622;49.752;6.100;2022-08-19T12:58:47;4.32;;;3.08;;
13112;SDS011;6622;49.752;6.100;2022-08-19T13:01:14;4.87;;;2.65;;
13112;SDS011;6622;49.752;6.100;2022-08-19T13:03:40;3.05;;;2.58;;
13112;SDS011;6622;49.752;6.100;2022-08-19T13:06:08;3.20;;;2.10;;
13112;SDS011;6622;49.752;6.100;2022-08-19T13:08:34;3.00;;;2.20;;
13112;SDS011;6622;49.752;6.100;2022-08-19T13:11:17;4.30;;;2.37;;
13112;SDS011;6622;49.752;6.100;2022-08-19T13:13:43;2.40;;;1.98;;
13112;SDS011;6622;49.752;6.100;2022-08-19T13:16:09;3.28;;;1.75;;
13112;SDS011;6622;49.752;6.100;2022-08-19T13:18:37;2.12;;;1.90;;
13112;SDS011;6622;49.752;6.100;2022-08-19T13:21:06;2.75;;;1.70;;
13112;SDS011;6622;49.752;6.100;2022-08-19T13:23:33;2.25;;;1.42;;
13112;SDS011;6622;49.752;6.100;2022-08-19T13:26:00;2.10;;;1.52;;
13112;SDS011;6622;49.752;6.100;2022-08-19T13:28:26;1.60;;;1.50;;
13112;SDS011;6622;49.752;6.100;2022-08-19T13:30:53;1.65;;;1.42;;
13112;SDS011;6622;49.752;6.100;2022-08-19T13:33:37;2.35;;;1.67;;
13112;SDS011;6622;49.752;6.100;2022-08-19T13:36:04;2.35;;;1.48;;
13112;SDS011;6622;49.752;6.100;2022-08-19T13:38:31;1.40;;;1.30;;
13112;SDS011;6622;49.752;6.100;2022-08-19T13:41:03;2.08;;;1.45;;
13112;SDS011;6622;49.752;6.100;2022-08-19T13:43:26;1.50;;;1.40;;
13112;SDS011;6622;49.752;6.100;2022-08-19T13:45:52;1.27;;;1.17;;
13112;SDS011;6622;49.752;6.100;2022-08-19T13:48:18;1.67;;;1.20;;
13112;SDS011;6622;49.752;6.100;2022-08-19T13:50:44;1.00;;;0.90;;
13112;SDS011;6622;49.752;6.100;2022-08-19T13:53:11;0.90;;;0.80;;
13112;SDS011;6622;49.752;6.100;2022-08-19T13:55:38;1.25;;;0.75;;
13112;SDS011;6622;49.752;6.100;2022-08-19T13:58:04;1.45;;;1.10;;
13112;SDS011;6622;49.752;6.100;2022-08-19T14:00:33;2.50;;;0.90;;
13112;SDS011;6622;49.752;6.100;2022-08-19T14:02:57;0.85;;;0.80;;
13112;SDS011;6622;49.752;6.100;2022-08-19T14:05:25;1.08;;;0.80;;
13112;SDS011;6622;49.752;6.100;2022-08-19T14:07:51;1.10;;;0.82;;
13112;SDS011;6622;49.752;6.100;2022-08-19T14:10:17;0.80;;;0.80;;
13112;SDS011;6622;49.752;6.100;2022-08-19T14:12:44;0.88;;;0.70;;
13112;SDS011;6622;49.752;6.100;2022-08-19T14:15:11;1.20;;;0.80;;
13112;SDS011;6622;49.752;6.100;2022-08-19T14:17:39;0.93;;;0.82;;
13112;SDS011;6622;49.752;6.100;2022-08-19T14:20:05;1.15;;;0.88;;
13112;SDS011;6622;49.752;6.100;2022-08-19T14:22:31;1.67;;;0.80;;
13112;SDS011;6622;49.752;6.100;2022-08-19T14:24:58;0.80;;;0.80;;
13112;SDS011;6622;49.752;6.100;2022-08-19T14:27:25;2.00;;;0.90;;
13112;SDS011;6622;49.752;6.100;2022-08-19T14:29:52;2.17;;;0.82;;
13112;SDS011;6622;49.752;6.100;2022-08-19T14:32:18;0.93;;;0.73;;
13112;SDS011;6622;49.752;6.100;2022-08-19T14:34:44;1.02;;;0.75;;
13112;SDS011;6622;49.752;6.100;2022-08-19T14:37:12;0.60;;;0.60;;
13112;SDS011;6622;49.752;6.100;2022-08-19T14:39:38;1.23;;;0.80;;
13112;SDS011;6622;49.752;6.100;2022-08-19T14:42:06;0.80;;;0.80;;
13112;SDS011;6622;49.752;6.100;2022-08-19T14:44:31;0.70;;;0.70;;
13112;SDS011;6622;49.752;6.100;2022-08-19T14:46:58;0.80;;;0.80;;
13112;SDS011;6622;49.752;6.100;2022-08-19T14:49:24;0.70;;;0.68;;
13112;SDS011;6622;49.752;6.100;2022-08-19T14:51:51;0.80;;;0.73;;
13112;SDS011;6622;49.752;6.100;2022-08-19T14:54:17;0.95;;;0.85;;
13112;SDS011;6622;49.752;6.100;2022-08-19T14:56:44;1.52;;;0.88;;